sensor_id;sensor_type;location;lat;lon;timestamp;temperature;humidity
34698;DHT22;61391;50.922;6.928;2023-08-17T00:00:21;22.20;99.90
34698;DHT22;61391;50.922;6.928;2023-08-17T00:02:47;22.20;99.90
34698;DHT22;61391;50.922;6.928;2023-08-17T00:05:13;22.10;99.90
34698;DHT22;61391;50.922;6.928;2023-08-17T00:07:38;22.20;99.90
34698;DHT22;61391;50.922;6.928;2023-08-17T00:10:04;22.20;99.90
34698;DHT22;61391;50.922;6.928;2023-08-17T00:12:30;22.00;99.90
34698;DHT22;61391;50.922;6.928;2023-08-17T00:14:55;22.00;99.90
34698;DHT22;61391;50.922;6.928;2023-08-17T00:17:21;22.10;99.90
34698;DHT22;61391;50.922;6.928;2023-08-17T00:19:47;22.10;99.90
34698;DHT22;61391;50.922;6.928;2023-08-17T00:22:13;22.10;99.90
34698;DHT22;61391;50.922;6.928;2023-08-17T00:24:38;22.00;99.90
34698;DHT22;61391;50.922;6.928;2023-08-17T00:27:05;21.90;99.90
34698;DHT22;61391;50.922;6.928;2023-08-17T00:29:31;22.00;99.90
34698;DHT22;61391;50.922;6.928;2023-08-17T00:31:57;22.00;99.90
34698;DHT22;61391;50.922;6.928;2023-08-17T00:34:22;21.90;99.90
34698;DHT22;61391;50.922;6.928;2023-08-17T00:36:48;22.00;99.90
34698;DHT22;61391;50.922;6.928;2023-08-17T00:39:13;22.10;99.90
34698;DHT22;61391;50.922;6.928;2023-08-17T00:41:40;22.00;99.90
34698;DHT22;61391;50.922;6.928;2023-08-17T00:44:05;21.90;99.90
34698;DHT22;61391;50.922;6.928;2023-08-17T00:46:31;22.00;99.90
34698;DHT22;61391;50.922;6.928;2023-08-17T00:48:57;22.10;99.90
34698;DHT22;61391;50.922;6.928;2023-08-17T00:51:23;22.00;99.90
34698;DHT22;61391;50.922;6.928;2023-08-17T00:53:50;21.90;99.90
34698;DHT22;61391;50.922;6.928;2023-08-17T00:56:16;22.00;99.90
34698;DHT22;61391;50.922;6.928;2023-08-17T00:58:42;21.90;99.90
34698;DHT22;61391;50.922;6.928;2023-08-17T01:01:08;21.70;99.90
34698;DHT22;61391;50.922;6.928;2023-08-17T01:03:33;21.70;99.90
34698;DHT22;61391;50.922;6.928;2023-08-17T01:05:59;21.70;99.90
34698;DHT22;61391;50.922;6.928;2023-08-17T01:08:28;21.70;99.90
34698;DHT22;61391;50.922;6.928;2023-08-17T01:13:31;22.00;99.90
34698;DHT22;61391;50.922;6.928;2023-08-17T01:15:58;22.00;99.90
34698;DHT22;61391;50.922;6.928;2023-08-17T01:18:31;21.90;99.90
34698;DHT22;61391;50.922;6.928;2023-08-17T01:20:58;22.00;99.90
34698;DHT22;61391;50.922;6.928;2023-08-17T01:23:24;21.80;99.90
34698;DHT22;61391;50.922;6.928;2023-08-17T01:25:51;21.80;99.90
34698;DHT22;61391;50.922;6.928;2023-08-17T01:28:19;21.60;99.90
34698;DHT22;61391;50.922;6.928;2023-08-17T01:30:47;21.60;99.90
34698;DHT22;61391;50.922;6.928;2023-08-17T01:33:13;21.70;99.90
34698;DHT22;61391;50.922;6.928;2023-08-17T01:35:44;21.70;99.90
34698;DHT22;61391;50.922;6.928;2023-08-17T01:38:12;21.60;99.90
34698;DHT22;61391;50.922;6.928;2023-08-17T01:40:39;21.60;99.90
34698;DHT22;61391;50.922;6.928;2023-08-17T01:43:06;21.60;99.90
34698;DHT22;61391;50.922;6.928;2023-08-17T01:45:33;21.50;99.90
34698;DHT22;61391;50.922;6.928;2023-08-17T01:47:59;21.50;99.90
34698;DHT22;61391;50.922;6.928;2023-08-17T01:50:24;21.50;99.90
34698;DHT22;61391;50.922;6.928;2023-08-17T01:52:50;21.50;99.90
34698;DHT22;61391;50.922;6.928;2023-08-17T01:55:16;21.50;99.90
34698;DHT22;61391;50.922;6.928;2023-08-17T01:57:42;21.60;99.90
34698;DHT22;61391;50.922;6.928;2023-08-17T02:00:07;21.50;99.90
34698;DHT22;61391;50.922;6.928;2023-08-17T02:02:36;21.20;99.90
34698;DHT22;61391;50.922;6.928;2023-08-17T02:05:02;21.20;99.90
34698;DHT22;61391;50.922;6.928;2023-08-17T02:07:30;20.90;99.90
34698;DHT22;61391;50.922;6.928;2023-08-17T02:09:56;21.00;99.90
34698;DHT22;61391;50.922;6.928;2023-08-17T02:12:21;20.90;99.90
34698;DHT22;61391;50.922;6.928;2023-08-17T02:14:47;20.80;99.90
34698;DHT22;61391;50.922;6.928;2023-08-17T02:17:13;20.80;99.90
34698;DHT22;61391;50.922;6.928;2023-08-17T02:19:42;20.90;99.90
34698;DHT22;61391;50.922;6.928;2023-08-17T02:22:08;20.90;99.90
34698;DHT22;61391;50.922;6.928;2023-08-17T02:24:34;21.00;99.90
34698;DHT22;61391;50.922;6.928;2023-08-17T02:27:00;21.00;99.90
34698;DHT22;61391;50.922;6.928;2023-08-17T02:29:25;21.10;99.90
34698;DHT22;61391;50.922;6.928;2023-08-17T02:31:51;21.00;99.90
34698;DHT22;61391;50.922;6.928;2023-08-17T02:34:16;21.10;99.90
34698;DHT22;61391;50.922;6.928;2023-08-17T02:36:42;21.00;99.90
34698;DHT22;61391;50.922;6.928;2023-08-17T02:39:10;21.00;99.90
34698;DHT22;61391;50.922;6.928;2023-08-17T02:41:36;21.20;99.90
34698;DHT22;61391;50.922;6.928;2023-08-17T02:44:02;21.20;99.90
34698;DHT22;61391;50.922;6.928;2023-08-17T02:46:27;21.30;99.90
34698;DHT22;61391;50.922;6.928;2023-08-17T02:48:53;21.30;99.90
34698;DHT22;61391;50.922;6.928;2023-08-17T02:51:19;21.40;99.90
34698;DHT22;61391;50.922;6.928;2023-08-17T02:53:44;21.20;99.90
34698;DHT22;61391;50.922;6.928;2023-08-17T02:56:10;21.10;99.90
34698;DHT22;61391;50.922;6.928;2023-08-17T02:58:37;21.20;99.90
34698;DHT22;61391;50.922;6.928;2023-08-17T03:01:06;21.10;99.90
34698;DHT22;61391;50.922;6.928;2023-08-17T03:03:32;21.10;99.90
34698;DHT22;61391;50.922;6.928;2023-08-17T03:05:57;21.10;99.90
34698;DHT22;61391;50.922;6.928;2023-08-17T03:08:23;21.40;99.90
34698;DHT22;61391;50.922;6.928;2023-08-17T03:10:48;21.10;99.90
34698;DHT22;61391;50.922;6.928;2023-08-17T03:13:14;20.90;99.90
34698;DHT22;61391;50.922;6.928;2023-08-17T03:15:39;21.20;99.90
34698;DHT22;61391;50.922;6.928;2023-08-17T03:18:05;21.30;99.90
34698;DHT22;61391;50.922;6.928;2023-08-17T03:20:31;21.30;99.90
34698;DHT22;61391;50.922;6.928;2023-08-17T03:22:56;21.50;99.90
34698;DHT22;61391;50.922;6.928;2023-08-17T03:25:22;21.50;99.90
34698;DHT22;61391;50.922;6.928;2023-08-17T03:27:49;21.50;99.90
34698;DHT22;61391;50.922;6.928;2023-08-17T03:30:14;21.40;99.90
34698;DHT22;61391;50.922;6.928;2023-08-17T03:32:40;21.50;99.90
34698;DHT22;61391;50.922;6.928;2023-08-17T03:35:06;21.50;99.90
34698;DHT22;61391;50.922;6.928;2023-08-17T03:37:32;21.40;99.90
34698;DHT22;61391;50.922;6.928;2023-08-17T03:40:00;21.60;99.90
34698;DHT22;61391;50.922;6.928;2023-08-17T03:42:26;21.40;99.90
34698;DHT22;61391;50.922;6.928;2023-08-17T03:44:51;21.40;99.90
34698;DHT22;61391;50.922;6.928;2023-08-17T03:47:30;21.30;99.90
34698;DHT22;61391;50.922;6.928;2023-08-17T03:49:56;21.30;99.90
34698;DHT22;61391;50.922;6.928;2023-08-17T03:52:22;21.40;99.90
34698;DHT22;61391;50.922;6.928;2023-08-17T03:54:47;21.40;99.90
34698;DHT22;61391;50.922;6.928;2023-08-17T03:57:13;21.40;99.90
34698;DHT22;61391;50.922;6.928;2023-08-17T03:59:41;21.30;99.90
34698;DHT22;61391;50.922;6.928;2023-08-17T04:02:06;21.30;99.90
34698;DHT22;61391;50.922;6.928;2023-08-17T04:04:32;21.30;99.90
34698;DHT22;61391;50.922;6.928;2023-08-17T04:06:58;21.40;99.90
34698;DHT22;61391;50.922;6.928;2023-08-17T04:09:23;21.20;99.90
34698;DHT22;61391;50.922;6.928;2023-08-17T04:11:49;21.30;99.90
34698;DHT22;61391;50.922;6.928;2023-08-17T04:14:14;21.30;99.90
34698;DHT22;61391;50.922;6.928;2023-08-17T04:16:40;21.30;99.90
34698;DHT22;61391;50.922;6.928;2023-08-17T04:19:06;21.20;99.90
34698;DHT22;61391;50.922;6.928;2023-08-17T04:21:32;21.30;99.90
34698;DHT22;61391;50.922;6.928;2023-08-17T04:23:57;21.40;99.90
34698;DHT22;61391;50.922;6.928;2023-08-17T04:26:23;21.50;99.90
34698;DHT22;61391;50.922;6.928;2023-08-17T04:28:49;21.40;99.90
34698;DHT22;61391;50.922;6.928;2023-08-17T04:31:15;21.20;99.90
34698;DHT22;61391;50.922;6.928;2023-08-17T04:33:42;21.20;99.90
34698;DHT22;61391;50.922;6.928;2023-08-17T04:36:08;21.10;99.90
34698;DHT22;61391;50.922;6.928;2023-08-17T04:38:33;21.20;99.90
34698;DHT22;61391;50.922;6.928;2023-08-17T04:40:59;21.20;99.90
34698;DHT22;61391;50.922;6.928;2023-08-17T04:43:24;21.20;99.90
34698;DHT22;61391;50.922;6.928;2023-08-17T04:45:50;21.20;99.90
34698;DHT22;61391;50.922;6.928;2023-08-17T04:48:16;21.40;99.90
34698;DHT22;61391;50.922;6.928;2023-08-17T04:50:41;21.40;99.90
34698;DHT22;61391;50.922;6.928;2023-08-17T04:53:07;21.50;99.90
34698;DHT22;61391;50.922;6.928;2023-08-17T04:55:33;21.30;99.90
34698;DHT22;61391;50.922;6.928;2023-08-17T04:57:58;21.20;99.90
34698;DHT22;61391;50.922;6.928;2023-08-17T05:00:24;21.30;99.90
34698;DHT22;61391;50.922;6.928;2023-08-17T05:02:54;21.20;99.90
34698;DHT22;61391;50.922;6.928;2023-08-17T05:05:31;21.10;99.90
34698;DHT22;61391;50.922;6.928;2023-08-17T05:07:57;21.20;99.90
34698;DHT22;61391;50.922;6.928;2023-08-17T05:10:22;21.00;99.90
34698;DHT22;61391;50.922;6.928;2023-08-17T05:12:48;21.00;99.90
34698;DHT22;61391;50.922;6.928;2023-08-17T05:15:14;21.10;99.90
34698;DHT22;61391;50.922;6.928;2023-08-17T05:17:39;21.10;99.90
34698;DHT22;61391;50.922;6.928;2023-08-17T05:20:05;21.00;99.90
34698;DHT22;61391;50.922;6.928;2023-08-17T05:22:33;21.30;99.90
34698;DHT22;61391;50.922;6.928;2023-08-17T05:24:59;21.00;99.90
34698;DHT22;61391;50.922;6.928;2023-08-17T05:27:24;21.30;99.90
34698;DHT22;61391;50.922;6.928;2023-08-17T05:29:50;21.20;99.90
34698;DHT22;61391;50.922;6.928;2023-08-17T05:32:15;21.30;99.90
34698;DHT22;61391;50.922;6.928;2023-08-17T05:34:41;21.40;99.90
34698;DHT22;61391;50.922;6.928;2023-08-17T05:37:08;21.50;99.90
34698;DHT22;61391;50.922;6.928;2023-08-17T05:39:34;21.30;99.90
34698;DHT22;61391;50.922;6.928;2023-08-17T05:41:59;21.30;99.90
34698;DHT22;61391;50.922;6.928;2023-08-17T05:44:25;21.30;99.90
34698;DHT22;61391;50.922;6.928;2023-08-17T05:46:51;21.30;99.90
34698;DHT22;61391;50.922;6.928;2023-08-17T05:49:17;21.40;99.90
34698;DHT22;61391;50.922;6.928;2023-08-17T05:51:42;21.20;99.90
34698;DHT22;61391;50.922;6.928;2023-08-17T05:54:08;21.10;99.90
34698;DHT22;61391;50.922;6.928;2023-08-17T05:56:33;21.10;99.90
34698;DHT22;61391;50.922;6.928;2023-08-17T05:58:59;20.80;99.90
34698;DHT22;61391;50.922;6.928;2023-08-17T06:01:25;20.90;99.90
34698;DHT22;61391;50.922;6.928;2023-08-17T06:06:55;21.00;99.90
34698;DHT22;61391;50.922;6.928;2023-08-17T06:09:21;21.00;99.90
34698;DHT22;61391;50.922;6.928;2023-08-17T06:14:21;21.10;99.90
34698;DHT22;61391;50.922;6.928;2023-08-17T06:16:47;21.30;99.90
34698;DHT22;61391;50.922;6.928;2023-08-17T06:19:13;21.20;99.90
34698;DHT22;61391;50.922;6.928;2023-08-17T06:21:38;21.10;99.90
34698;DHT22;61391;50.922;6.928;2023-08-17T06:24:04;21.00;99.90
34698;DHT22;61391;50.922;6.928;2023-08-17T06:26:40;20.90;99.90
34698;DHT22;61391;50.922;6.928;2023-08-17T06:29:08;21.00;99.90
34698;DHT22;61391;50.922;6.928;2023-08-17T06:31:34;20.80;99.90
34698;DHT22;61391;50.922;6.928;2023-08-17T06:34:01;21.00;99.90
34698;DHT22;61391;50.922;6.928;2023-08-17T06:36:30;21.10;99.90
34698;DHT22;61391;50.922;6.928;2023-08-17T06:38:56;21.10;99.90
34698;DHT22;61391;50.922;6.928;2023-08-17T06:41:25;21.10;99.90
34698;DHT22;61391;50.922;6.928;2023-08-17T06:43:51;21.30;99.90
34698;DHT22;61391;50.922;6.928;2023-08-17T06:46:16;21.40;99.90
34698;DHT22;61391;50.922;6.928;2023-08-17T06:48:42;21.50;99.90
34698;DHT22;61391;50.922;6.928;2023-08-17T06:51:08;21.50;99.90
34698;DHT22;61391;50.922;6.928;2023-08-17T06:53:33;21.30;99.90
34698;DHT22;61391;50.922;6.928;2023-08-17T06:59:03;21.60;99.90
34698;DHT22;61391;50.922;6.928;2023-08-17T07:01:29;21.80;99.90
34698;DHT22;61391;50.922;6.928;2023-08-17T07:03:55;22.10;99.90
34698;DHT22;61391;50.922;6.928;2023-08-17T07:06:22;22.10;99.90
34698;DHT22;61391;50.922;6.928;2023-08-17T07:08:49;22.20;99.90
34698;DHT22;61391;50.922;6.928;2023-08-17T07:11:14;22.40;99.90
34698;DHT22;61391;50.922;6.928;2023-08-17T07:13:40;22.70;99.90
34698;DHT22;61391;50.922;6.928;2023-08-17T07:16:06;22.70;99.90
34698;DHT22;61391;50.922;6.928;2023-08-17T07:18:31;22.60;99.90
34698;DHT22;61391;50.922;6.928;2023-08-17T07:20:57;22.60;99.90
34698;DHT22;61391;50.922;6.928;2023-08-17T07:23:23;22.60;99.90
34698;DHT22;61391;50.922;6.928;2023-08-17T07:25:48;22.40;99.90
34698;DHT22;61391;50.922;6.928;2023-08-17T07:28:15;22.30;99.90
34698;DHT22;61391;50.922;6.928;2023-08-17T07:33:44;22.60;99.90
34698;DHT22;61391;50.922;6.928;2023-08-17T07:36:09;22.80;99.90
34698;DHT22;61391;50.922;6.928;2023-08-17T07:38:35;22.70;99.90
34698;DHT22;61391;50.922;6.928;2023-08-17T07:41:01;22.50;99.90
34698;DHT22;61391;50.922;6.928;2023-08-17T07:43:26;21.90;99.90
34698;DHT22;61391;50.922;6.928;2023-08-17T07:45:53;21.70;99.90
34698;DHT22;61391;50.922;6.928;2023-08-17T07:48:19;21.50;99.90
34698;DHT22;61391;50.922;6.928;2023-08-17T07:53:44;21.80;99.90
34698;DHT22;61391;50.922;6.928;2023-08-17T07:56:10;22.10;99.90
34698;DHT22;61391;50.922;6.928;2023-08-17T07:58:35;22.20;99.90
34698;DHT22;61391;50.922;6.928;2023-08-17T08:01:01;22.20;99.90
34698;DHT22;61391;50.922;6.928;2023-08-17T08:06:30;22.10;99.90
34698;DHT22;61391;50.922;6.928;2023-08-17T08:08:56;22.20;99.90
34698;DHT22;61391;50.922;6.928;2023-08-17T08:11:22;22.20;99.90
34698;DHT22;61391;50.922;6.928;2023-08-17T08:13:47;21.50;99.90
34698;DHT22;61391;50.922;6.928;2023-08-17T08:16:13;21.90;99.90
34698;DHT22;61391;50.922;6.928;2023-08-17T08:18:42;21.90;99.90
34698;DHT22;61391;50.922;6.928;2023-08-17T08:21:07;21.50;99.90
34698;DHT22;61391;50.922;6.928;2023-08-17T08:23:33;21.10;99.90
34698;DHT22;61391;50.922;6.928;2023-08-17T08:26:02;20.90;99.90
34698;DHT22;61391;50.922;6.928;2023-08-17T08:28:27;20.70;99.90
34698;DHT22;61391;50.922;6.928;2023-08-17T08:30:55;20.70;99.90
34698;DHT22;61391;50.922;6.928;2023-08-17T08:33:26;20.90;99.90
34698;DHT22;61391;50.922;6.928;2023-08-17T08:35:52;21.20;99.90
34698;DHT22;61391;50.922;6.928;2023-08-17T08:38:20;21.50;99.90
34698;DHT22;61391;50.922;6.928;2023-08-17T08:40:47;21.80;99.90
34698;DHT22;61391;50.922;6.928;2023-08-17T08:43:13;22.20;99.90
34698;DHT22;61391;50.922;6.928;2023-08-17T08:45:38;22.50;99.90
34698;DHT22;61391;50.922;6.928;2023-08-17T08:48:07;22.40;99.90
34698;DHT22;61391;50.922;6.928;2023-08-17T08:50:33;22.50;99.90
34698;DHT22;61391;50.922;6.928;2023-08-17T08:53:01;22.70;99.90
34698;DHT22;61391;50.922;6.928;2023-08-17T08:55:29;22.90;99.90
34698;DHT22;61391;50.922;6.928;2023-08-17T08:57:55;23.00;99.90
34698;DHT22;61391;50.922;6.928;2023-08-17T09:00:21;23.00;99.90
34698;DHT22;61391;50.922;6.928;2023-08-17T09:02:47;23.20;99.90
34698;DHT22;61391;50.922;6.928;2023-08-17T09:05:13;23.30;99.90
34698;DHT22;61391;50.922;6.928;2023-08-17T09:07:39;23.00;99.90
34698;DHT22;61391;50.922;6.928;2023-08-17T09:10:09;22.90;99.90
34698;DHT22;61391;50.922;6.928;2023-08-17T09:12:35;23.00;99.90
34698;DHT22;61391;50.922;6.928;2023-08-17T09:15:00;23.30;99.90
34698;DHT22;61391;50.922;6.928;2023-08-17T09:17:27;23.50;99.90
34698;DHT22;61391;50.922;6.928;2023-08-17T09:19:54;23.70;99.90
34698;DHT22;61391;50.922;6.928;2023-08-17T09:22:24;23.90;99.90
34698;DHT22;61391;50.922;6.928;2023-08-17T09:24:49;23.80;99.90
34698;DHT22;61391;50.922;6.928;2023-08-17T09:27:16;23.90;99.90
34698;DHT22;61391;50.922;6.928;2023-08-17T09:29:48;23.90;99.90
34698;DHT22;61391;50.922;6.928;2023-08-17T09:32:16;24.00;99.90
34698;DHT22;61391;50.922;6.928;2023-08-17T09:34:57;24.00;99.90
34698;DHT22;61391;50.922;6.928;2023-08-17T09:37:33;24.20;99.90
34698;DHT22;61391;50.922;6.928;2023-08-17T09:40:03;24.30;99.90
34698;DHT22;61391;50.922;6.928;2023-08-17T09:42:29;24.40;99.90
34698;DHT22;61391;50.922;6.928;2023-08-17T09:45:01;24.50;99.90
34698;DHT22;61391;50.922;6.928;2023-08-17T09:47:29;24.70;99.90
34698;DHT22;61391;50.922;6.928;2023-08-17T09:49:56;24.60;99.90
34698;DHT22;61391;50.922;6.928;2023-08-17T09:52:38;24.50;99.90
34698;DHT22;61391;50.922;6.928;2023-08-17T09:55:04;24.80;99.90
34698;DHT22;61391;50.922;6.928;2023-08-17T09:57:31;24.90;99.90
34698;DHT22;61391;50.922;6.928;2023-08-17T09:59:59;25.00;99.90
34698;DHT22;61391;50.922;6.928;2023-08-17T10:05:30;25.10;99.90
34698;DHT22;61391;50.922;6.928;2023-08-17T10:07:57;25.10;99.90
34698;DHT22;61391;50.922;6.928;2023-08-17T10:10:27;24.80;99.90
34698;DHT22;61391;50.922;6.928;2023-08-17T10:13:01;24.60;99.90
34698;DHT22;61391;50.922;6.928;2023-08-17T10:15:33;24.50;99.90
34698;DHT22;61391;50.922;6.928;2023-08-17T10:18:07;24.50;99.90
34698;DHT22;61391;50.922;6.928;2023-08-17T10:20:34;24.70;99.90
34698;DHT22;61391;50.922;6.928;2023-08-17T10:23:06;24.80;99.90
34698;DHT22;61391;50.922;6.928;2023-08-17T10:25:38;24.90;99.90
34698;DHT22;61391;50.922;6.928;2023-08-17T10:28:05;24.80;99.90
34698;DHT22;61391;50.922;6.928;2023-08-17T10:30:34;24.70;99.90
34698;DHT22;61391;50.922;6.928;2023-08-17T10:33:00;24.70;99.90
34698;DHT22;61391;50.922;6.928;2023-08-17T10:35:30;24.80;99.90
34698;DHT22;61391;50.922;6.928;2023-08-17T10:37:57;24.90;99.90
34698;DHT22;61391;50.922;6.928;2023-08-17T10:43:18;25.10;99.90
34698;DHT22;61391;50.922;6.928;2023-08-17T10:45:51;25.10;99.90
34698;DHT22;61391;50.922;6.928;2023-08-17T10:48:26;25.00;99.90
34698;DHT22;61391;50.922;6.928;2023-08-17T10:51:03;25.00;99.90
34698;DHT22;61391;50.922;6.928;2023-08-17T10:53:33;24.90;99.90
34698;DHT22;61391;50.922;6.928;2023-08-17T10:59:02;24.90;99.90
34698;DHT22;61391;50.922;6.928;2023-08-17T11:01:32;24.80;99.90
34698;DHT22;61391;50.922;6.928;2023-08-17T11:04:15;24.80;99.90
34698;DHT22;61391;50.922;6.928;2023-08-17T11:06:44;24.70;99.90
34698;DHT22;61391;50.922;6.928;2023-08-17T11:09:11;24.70;99.90
34698;DHT22;61391;50.922;6.928;2023-08-17T11:11:39;24.70;99.90
34698;DHT22;61391;50.922;6.928;2023-08-17T11:14:10;24.70;99.90
34698;DHT22;61391;50.922;6.928;2023-08-17T11:16:55;24.70;99.90
34698;DHT22;61391;50.922;6.928;2023-08-17T11:19:24;24.80;99.90
34698;DHT22;61391;50.922;6.928;2023-08-17T11:21:50;24.90;99.90
34698;DHT22;61391;50.922;6.928;2023-08-17T11:24:16;25.00;99.90
34698;DHT22;61391;50.922;6.928;2023-08-17T11:26:42;25.10;99.90
34698;DHT22;61391;50.922;6.928;2023-08-17T11:32:05;25.10;99.90
34698;DHT22;61391;50.922;6.928;2023-08-17T11:34:30;25.30;99.90
34698;DHT22;61391;50.922;6.928;2023-08-17T11:36:57;25.40;99.90
34698;DHT22;61391;50.922;6.928;2023-08-17T11:39:22;25.50;99.90
34698;DHT22;61391;50.922;6.928;2023-08-17T11:41:49;25.80;99.90
34698;DHT22;61391;50.922;6.928;2023-08-17T11:44:17;26.20;99.90
34698;DHT22;61391;50.922;6.928;2023-08-17T11:46:43;26.90;99.90
34698;DHT22;61391;50.922;6.928;2023-08-17T11:49:13;27.80;99.90
34698;DHT22;61391;50.922;6.928;2023-08-17T11:51:38;28.30;99.90
34698;DHT22;61391;50.922;6.928;2023-08-17T11:54:05;28.90;99.90
34698;DHT22;61391;50.922;6.928;2023-08-17T11:56:33;29.20;99.90
34698;DHT22;61391;50.922;6.928;2023-08-17T11:58:58;29.20;99.90
34698;DHT22;61391;50.922;6.928;2023-08-17T12:01:24;29.20;99.90
34698;DHT22;61391;50.922;6.928;2023-08-17T12:03:50;29.20;99.90
34698;DHT22;61391;50.922;6.928;2023-08-17T12:06:16;29.10;99.90
34698;DHT22;61391;50.922;6.928;2023-08-17T12:08:43;29.00;99.90
34698;DHT22;61391;50.922;6.928;2023-08-17T12:11:08;29.10;99.90
34698;DHT22;61391;50.922;6.928;2023-08-17T12:13:34;29.10;99.90
34698;DHT22;61391;50.922;6.928;2023-08-17T12:16:00;29.40;99.90
34698;DHT22;61391;50.922;6.928;2023-08-17T12:20:54;29.60;99.90
34698;DHT22;61391;50.922;6.928;2023-08-17T12:23:21;29.10;99.90
34698;DHT22;61391;50.922;6.928;2023-08-17T12:25:52;29.00;99.90
34698;DHT22;61391;50.922;6.928;2023-08-17T12:28:18;28.50;99.90
34698;DHT22;61391;50.922;6.928;2023-08-17T12:30:43;28.40;99.90
34698;DHT22;61391;50.922;6.928;2023-08-17T12:33:09;28.30;99.90
34698;DHT22;61391;50.922;6.928;2023-08-17T12:35:34;28.20;99.90
34698;DHT22;61391;50.922;6.928;2023-08-17T12:38:00;28.20;99.90
34698;DHT22;61391;50.922;6.928;2023-08-17T12:40:25;27.80;99.90
34698;DHT22;61391;50.922;6.928;2023-08-17T12:42:51;27.70;99.90
34698;DHT22;61391;50.922;6.928;2023-08-17T12:45:16;27.30;99.90
34698;DHT22;61391;50.922;6.928;2023-08-17T12:47:42;27.10;99.90
34698;DHT22;61391;50.922;6.928;2023-08-17T12:50:09;26.70;99.90
34698;DHT22;61391;50.922;6.928;2023-08-17T12:52:34;26.30;99.90
34698;DHT22;61391;50.922;6.928;2023-08-17T12:55:01;26.00;99.90
34698;DHT22;61391;50.922;6.928;2023-08-17T12:57:27;25.90;99.90
34698;DHT22;61391;50.922;6.928;2023-08-17T12:59:52;25.60;99.90
34698;DHT22;61391;50.922;6.928;2023-08-17T13:02:19;25.40;99.90
34698;DHT22;61391;50.922;6.928;2023-08-17T13:04:45;25.40;99.90
34698;DHT22;61391;50.922;6.928;2023-08-17T13:07:10;25.40;99.90
34698;DHT22;61391;50.922;6.928;2023-08-17T13:09:36;25.50;99.90
34698;DHT22;61391;50.922;6.928;2023-08-17T13:12:02;25.70;99.90
34698;DHT22;61391;50.922;6.928;2023-08-17T13:14:28;25.90;99.90
34698;DHT22;61391;50.922;6.928;2023-08-17T13:16:55;26.10;99.90
34698;DHT22;61391;50.922;6.928;2023-08-17T13:19:24;26.20;99.90
34698;DHT22;61391;50.922;6.928;2023-08-17T13:21:49;26.30;99.90
34698;DHT22;61391;50.922;6.928;2023-08-17T13:24:15;26.20;99.90
34698;DHT22;61391;50.922;6.928;2023-08-17T13:26:40;26.30;99.90
34698;DHT22;61391;50.922;6.928;2023-08-17T13:29:06;26.60;99.90
34698;DHT22;61391;50.922;6.928;2023-08-17T13:31:32;26.90;99.90
34698;DHT22;61391;50.922;6.928;2023-08-17T13:33:57;27.20;99.90
34698;DHT22;61391;50.922;6.928;2023-08-17T13:36:23;27.40;99.90
34698;DHT22;61391;50.922;6.928;2023-08-17T13:38:48;27.50;99.90
34698;DHT22;61391;50.922;6.928;2023-08-17T13:41:15;27.70;99.90
34698;DHT22;61391;50.922;6.928;2023-08-17T13:43:41;28.00;99.90
34698;DHT22;61391;50.922;6.928;2023-08-17T13:46:06;28.10;99.90
34698;DHT22;61391;50.922;6.928;2023-08-17T13:48:33;28.20;99.90
34698;DHT22;61391;50.922;6.928;2023-08-17T13:50:59;28.50;99.90
34698;DHT22;61391;50.922;6.928;2023-08-17T13:56:09;28.60;99.90
34698;DHT22;61391;50.922;6.928;2023-08-17T13:58:34;28.60;99.90
34698;DHT22;61391;50.922;6.928;2023-08-17T14:01:00;28.50;99.90
34698;DHT22;61391;50.922;6.928;2023-08-17T14:03:25;28.50;99.90
34698;DHT22;61391;50.922;6.928;2023-08-17T14:05:51;28.40;99.90
34698;DHT22;61391;50.922;6.928;2023-08-17T14:08:16;28.20;99.90
34698;DHT22;61391;50.922;6.928;2023-08-17T14:10:42;28.10;99.90
34698;DHT22;61391;50.922;6.928;2023-08-17T14:13:07;28.10;99.90
34698;DHT22;61391;50.922;6.928;2023-08-17T14:15:33;28.10;99.90
34698;DHT22;61391;50.922;6.928;2023-08-17T14:17:58;27.90;99.90
34698;DHT22;61391;50.922;6.928;2023-08-17T14:20:24;27.30;99.90
34698;DHT22;61391;50.922;6.928;2023-08-17T14:22:50;26.80;99.90
34698;DHT22;61391;50.922;6.928;2023-08-17T14:25:15;26.80;99.90
34698;DHT22;61391;50.922;6.928;2023-08-17T14:27:41;27.00;99.90
34698;DHT22;61391;50.922;6.928;2023-08-17T14:30:07;26.60;99.90
34698;DHT22;61391;50.922;6.928;2023-08-17T14:32:32;26.70;99.90
34698;DHT22;61391;50.922;6.928;2023-08-17T14:34:59;26.70;99.90
34698;DHT22;61391;50.922;6.928;2023-08-17T14:37:25;26.60;99.90
34698;DHT22;61391;50.922;6.928;2023-08-17T14:39:50;26.50;99.90
34698;DHT22;61391;50.922;6.928;2023-08-17T14:42:16;26.70;99.90
34698;DHT22;61391;50.922;6.928;2023-08-17T14:44:41;26.70;99.90
34698;DHT22;61391;50.922;6.928;2023-08-17T14:47:07;26.80;99.90
34698;DHT22;61391;50.922;6.928;2023-08-17T14:49:32;26.70;99.90
34698;DHT22;61391;50.922;6.928;2023-08-17T14:51:58;26.80;99.90
34698;DHT22;61391;50.922;6.928;2023-08-17T14:54:23;26.30;99.90
34698;DHT22;61391;50.922;6.928;2023-08-17T14:56:50;26.20;99.90
34698;DHT22;61391;50.922;6.928;2023-08-17T14:59:16;26.30;99.90
34698;DHT22;61391;50.922;6.928;2023-08-17T15:01:41;26.30;99.90
34698;DHT22;61391;50.922;6.928;2023-08-17T15:04:07;26.50;99.90
34698;DHT22;61391;50.922;6.928;2023-08-17T15:06:32;26.30;99.90
34698;DHT22;61391;50.922;6.928;2023-08-17T15:08:58;26.30;99.90
34698;DHT22;61391;50.922;6.928;2023-08-17T15:11:24;26.40;99.90
34698;DHT22;61391;50.922;6.928;2023-08-17T15:13:49;26.40;99.90
34698;DHT22;61391;50.922;6.928;2023-08-17T15:16:15;26.30;99.90
34698;DHT22;61391;50.922;6.928;2023-08-17T15:24:47;27.00;99.90
34698;DHT22;61391;50.922;6.928;2023-08-17T15:27:13;27.10;99.90
34698;DHT22;61391;50.922;6.928;2023-08-17T15:29:48;26.90;99.90
34698;DHT22;61391;50.922;6.928;2023-08-17T15:32:15;27.00;99.90
34698;DHT22;61391;50.922;6.928;2023-08-17T15:35:02;27.10;99.90
34698;DHT22;61391;50.922;6.928;2023-08-17T15:37:31;27.20;99.90
34698;DHT22;61391;50.922;6.928;2023-08-17T15:40:06;27.20;99.90
34698;DHT22;61391;50.922;6.928;2023-08-17T15:48:27;27.40;99.90
34698;DHT22;61391;50.922;6.928;2023-08-17T15:50:56;27.20;99.90
34698;DHT22;61391;50.922;6.928;2023-08-17T15:53:21;27.20;99.90
34698;DHT22;61391;50.922;6.928;2023-08-17T15:55:47;27.30;99.90
34698;DHT22;61391;50.922;6.928;2023-08-17T15:58:12;27.20;99.90
34698;DHT22;61391;50.922;6.928;2023-08-17T16:00:39;27.10;99.90
34698;DHT22;61391;50.922;6.928;2023-08-17T16:03:05;26.90;99.90
34698;DHT22;61391;50.922;6.928;2023-08-17T16:05:30;27.00;99.90
34698;DHT22;61391;50.922;6.928;2023-08-17T16:07:56;26.80;99.90
34698;DHT22;61391;50.922;6.928;2023-08-17T16:10:22;26.80;99.90
34698;DHT22;61391;50.922;6.928;2023-08-17T16:15:50;26.70;99.90
34698;DHT22;61391;50.922;6.928;2023-08-17T16:18:16;26.80;99.90